UIA087 HEMA-LLBG
Flight info
| Callsign | UIA087 |
|---|---|
| Flight time | 1h 8m |
| Altitude | 38000 |
| Route | SIBRI1A SIBRI V730 SOBEL DCT SHM/N0486F390 R650 NALSO/N0485F370 J10 AMMIT AMMIT1B |
| Aircraft | B773/H-V/N |
Departure
| Time | 2026-04-21 03:30 |
|---|---|
| Airport | Marsa Alam International Airport (HEMA) |
Arrival
| Time | 2026-04-21 04:38 |
|---|---|
| Airport | Ben Gurion International Airport (LLBG) |
| Time | Latitude | Longitude | Altitude | Speed | Heading |
|---|---|---|---|---|---|
| 2026-04-21 03:21 | 25.55378 | 34.59136 | 266 ft | 0 kts | 61° |
| 2026-04-21 03:24 | 25.55378 | 34.59137 | 266 ft | 0 kts | 61° |
| 2026-04-21 03:24 | 25.55378 | 34.59148 | 266 ft | 2 kts | 98° |
| 2026-04-21 03:25 | 25.55359 | 34.59162 | 266 ft | 6 kts | 152° |
| 2026-04-21 03:25 | 25.55299 | 34.59177 | 266 ft | 12 kts | 180° |
| 2026-04-21 03:25 | 25.55208 | 34.59132 | 266 ft | 17 kts | 228° |
| 2026-04-21 03:25 | 25.55136 | 34.59018 | 266 ft | 19 kts | 215° |
| 2026-04-21 03:26 | 25.55011 | 34.59057 | 266 ft | 23 kts | 149° |
| 2026-04-21 03:26 | 25.54859 | 34.59156 | 266 ft | 28 kts | 150° |
| 2026-04-21 03:26 | 25.54705 | 34.59255 | 265 ft | 15 kts | 150° |
| 2026-04-21 03:26 | 25.54621 | 34.59232 | 266 ft | 8 kts | 239° |
| 2026-04-21 03:27 | 25.54619 | 34.59227 | 266 ft | 0 kts | 238° |
| 2026-04-21 03:28 | 25.54616 | 34.59223 | 266 ft | 3 kts | 238° |
| 2026-04-21 03:28 | 25.54597 | 34.59189 | 266 ft | 8 kts | 238° |
| 2026-04-21 03:28 | 25.54579 | 34.59122 | 267 ft | 11 kts | 283° |
| 2026-04-21 03:28 | 25.54626 | 34.59077 | 267 ft | 1 kts | 328° |
| 2026-04-21 03:29 | 25.54684 | 34.59038 | 267 ft | 33 kts | 329° |
| 2026-04-21 03:29 | 25.55171 | 34.58727 | 264 ft | 127 kts | 330° |
| 2026-04-21 03:29 | 25.56159 | 34.58116 | 403 ft | 185 kts | 330° |
| 2026-04-21 03:29 | 25.57385 | 34.57398 | 797 ft | 216 kts | 329° |
| 2026-04-21 03:30 | 25.58681 | 34.56507 | 1825 ft | 212 kts | 327° |
| 2026-04-21 03:30 | 25.59937 | 34.55618 | 2877 ft | 223 kts | 330° |
| 2026-04-21 03:30 | 25.61355 | 34.54712 | 3467 ft | 242 kts | 330° |
| 2026-04-21 03:30 | 25.62842 | 34.53772 | 4318 ft | 252 kts | 329° |
| 2026-04-21 03:31 | 25.64385 | 34.52789 | 5190 ft | 259 kts | 329° |
| 2026-04-21 03:31 | 25.65963 | 34.51779 | 6131 ft | 262 kts | 327° |
| 2026-04-21 03:31 | 25.67524 | 34.50775 | 7064 ft | 264 kts | 327° |
| 2026-04-21 03:31 | 25.69131 | 34.49737 | 7934 ft | 269 kts | 327° |
| 2026-04-21 03:32 | 25.70757 | 34.48687 | 8889 ft | 271 kts | 327° |
| 2026-04-21 03:32 | 25.72396 | 34.47628 | 9828 ft | 274 kts | 327° |
| 2026-04-21 03:32 | 25.74060 | 34.46554 | 10577 ft | 283 kts | 327° |
| 2026-04-21 03:32 | 25.75844 | 34.45399 | 10869 ft | 312 kts | 327° |
| 2026-04-21 03:33 | 25.77804 | 34.44129 | 11086 ft | 341 kts | 327° |
| 2026-04-21 03:33 | 25.79917 | 34.42766 | 11606 ft | 357 kts | 327° |
| 2026-04-21 03:33 | 25.82245 | 34.41713 | 11939 ft | 371 kts | 344° |
| 2026-04-21 03:33 | 25.84851 | 34.41635 | 11931 ft | 380 kts | 4° |
| 2026-04-21 03:34 | 25.87471 | 34.42157 | 11951 ft | 384 kts | 6° |
| 2026-04-21 03:34 | 25.90111 | 34.42674 | 11928 ft | 384 kts | 5° |
| 2026-04-21 03:34 | 25.92737 | 34.43162 | 11920 ft | 382 kts | 5° |
| 2026-04-21 03:34 | 25.95368 | 34.43637 | 11920 ft | 381 kts | 5° |
| 2026-04-21 03:35 | 25.97938 | 34.44049 | 11909 ft | 373 kts | 359° |
| 2026-04-21 03:35 | 26.00495 | 34.43720 | 12224 ft | 370 kts | 339° |
| 2026-04-21 03:35 | 26.02982 | 34.42849 | 13010 ft | 378 kts | 339° |
| 2026-04-21 03:35 | 26.05530 | 34.42023 | 14042 ft | 382 kts | 339° |
| 2026-04-21 03:36 | 26.08101 | 34.41223 | 15022 ft | 386 kts | 339° |
| 2026-04-21 03:36 | 26.10705 | 34.40422 | 15952 ft | 391 kts | 339° |
| 2026-04-21 03:36 | 26.13316 | 34.39620 | 16860 ft | 396 kts | 339° |
| 2026-04-21 03:36 | 26.15990 | 34.38798 | 17804 ft | 401 kts | 338° |
| 2026-04-21 03:37 | 26.18696 | 34.37964 | 18646 ft | 406 kts | 338° |
| 2026-04-21 03:37 | 26.21435 | 34.37119 | 19492 ft | 409 kts | 338° |
| 2026-04-21 03:37 | 26.24201 | 34.36266 | 20388 ft | 410 kts | 337° |
| 2026-04-21 03:37 | 26.26957 | 34.35415 | 21266 ft | 413 kts | 337° |
| 2026-04-21 03:38 | 26.29697 | 34.34567 | 22079 ft | 416 kts | 336° |
| 2026-04-21 03:38 | 26.32499 | 34.33698 | 22861 ft | 419 kts | 336° |
| 2026-04-21 03:38 | 26.35322 | 34.32823 | 23621 ft | 423 kts | 336° |
| 2026-04-21 03:38 | 26.38174 | 34.31937 | 24181 ft | 428 kts | 336° |
| 2026-04-21 03:39 | 26.41056 | 34.31042 | 24748 ft | 432 kts | 336° |
| 2026-04-21 03:39 | 26.43973 | 34.30137 | 25355 ft | 436 kts | 336° |
| 2026-04-21 03:39 | 26.46909 | 34.29226 | 25967 ft | 439 kts | 336° |
| 2026-04-21 03:39 | 26.49874 | 34.28306 | 26563 ft | 443 kts | 336° |
| 2026-04-21 03:40 | 26.52861 | 34.27377 | 27128 ft | 447 kts | 335° |
| 2026-04-21 03:40 | 26.55872 | 34.26441 | 27678 ft | 451 kts | 335° |
| 2026-04-21 03:40 | 26.58867 | 34.25509 | 28215 ft | 454 kts | 335° |
| 2026-04-21 03:40 | 26.61929 | 34.24556 | 28747 ft | 458 kts | 335° |
| 2026-04-21 03:41 | 26.65013 | 34.23597 | 29292 ft | 461 kts | 335° |
| 2026-04-21 03:41 | 26.68109 | 34.22633 | 29805 ft | 463 kts | 335° |
| 2026-04-21 03:41 | 26.71226 | 34.21662 | 30265 ft | 465 kts | 335° |
| 2026-04-21 03:41 | 26.74333 | 34.20696 | 30870 ft | 462 kts | 335° |
| 2026-04-21 03:42 | 26.77413 | 34.19738 | 31529 ft | 458 kts | 334° |
| 2026-04-21 03:42 | 26.80530 | 34.18939 | 32118 ft | 465 kts | 340° |
| 2026-04-21 03:42 | 26.83778 | 34.18593 | 32638 ft | 474 kts | 346° |
| 2026-04-21 03:42 | 26.87102 | 34.18594 | 33134 ft | 481 kts | 351° |
| 2026-04-21 03:43 | 26.90473 | 34.19016 | 33674 ft | 492 kts | 358° |
| 2026-04-21 03:43 | 26.93848 | 34.19685 | 34134 ft | 493 kts | 358° |
| 2026-04-21 03:43 | 26.97219 | 34.20402 | 34515 ft | 493 kts | 359° |
| 2026-04-21 03:43 | 27.00591 | 34.21129 | 34860 ft | 494 kts | 358° |
| 2026-04-21 03:44 | 27.03963 | 34.21845 | 35192 ft | 493 kts | 358° |
| 2026-04-21 03:44 | 27.07337 | 34.22549 | 35568 ft | 493 kts | 357° |
| 2026-04-21 03:44 | 27.10712 | 34.23240 | 35935 ft | 492 kts | 357° |
| 2026-04-21 03:44 | 27.14077 | 34.23921 | 36345 ft | 491 kts | 356° |
| 2026-04-21 03:45 | 27.17442 | 34.24598 | 36725 ft | 490 kts | 356° |
| 2026-04-21 03:45 | 27.20761 | 34.25265 | 37075 ft | 490 kts | 356° |
| 2026-04-21 03:45 | 27.24116 | 34.25939 | 37397 ft | 490 kts | 355° |
| 2026-04-21 03:45 | 27.27472 | 34.26613 | 37714 ft | 490 kts | 355° |
| 2026-04-21 03:46 | 27.30847 | 34.27290 | 37874 ft | 493 kts | 355° |
| 2026-04-21 03:46 | 27.34238 | 34.27968 | 37920 ft | 496 kts | 355° |
| 2026-04-21 03:46 | 27.41007 | 34.29341 | 37939 ft | 492 kts | 355° |
| 2026-04-21 03:47 | 27.47699 | 34.30706 | 37924 ft | 487 kts | 355° |
| 2026-04-21 03:47 | 27.54315 | 34.32044 | 37928 ft | 486 kts | 355° |
| 2026-04-21 03:48 | 27.60980 | 34.33391 | 37975 ft | 486 kts | 355° |
| 2026-04-21 03:48 | 27.67659 | 34.34744 | 37933 ft | 488 kts | 355° |
| 2026-04-21 03:49 | 27.74362 | 34.36107 | 37926 ft | 490 kts | 355° |
| 2026-04-21 03:49 | 27.81081 | 34.37475 | 37920 ft | 491 kts | 355° |
| 2026-04-21 03:50 | 27.87816 | 34.38849 | 37921 ft | 493 kts | 356° |
| 2026-04-21 03:50 | 27.94535 | 34.40223 | 37913 ft | 493 kts | 356° |
| 2026-04-21 03:51 | 28.01297 | 34.41617 | 37902 ft | 495 kts | 357° |
| 2026-04-21 03:51 | 28.08073 | 34.43222 | 37966 ft | 498 kts | 359° |
| 2026-04-21 03:52 | 28.14860 | 34.44907 | 37942 ft | 498 kts | 359° |
| 2026-04-21 03:52 | 28.21587 | 34.46553 | 37949 ft | 497 kts | 358° |
| 2026-04-21 03:53 | 28.28358 | 34.48191 | 37942 ft | 496 kts | 358° |
| 2026-04-21 03:53 | 28.35109 | 34.49821 | 37964 ft | 496 kts | 358° |
| 2026-04-21 03:54 | 28.41832 | 34.51449 | 37972 ft | 496 kts | 358° |
| 2026-04-21 03:54 | 28.48583 | 34.53088 | 37976 ft | 496 kts | 358° |
| 2026-04-21 03:55 | 28.55327 | 34.54753 | 37976 ft | 497 kts | 359° |
| 2026-04-21 03:55 | 28.62073 | 34.56492 | 37984 ft | 497 kts | 359° |
| 2026-04-21 03:56 | 28.68817 | 34.58258 | 37980 ft | 497 kts | 0° |
| 2026-04-21 03:56 | 28.75529 | 34.60007 | 38079 ft | 494 kts | 359° |
| 2026-04-21 03:57 | 28.82260 | 34.61691 | 37978 ft | 493 kts | 359° |
| 2026-04-21 03:57 | 28.88957 | 34.63418 | 37971 ft | 491 kts | 359° |
| 2026-04-21 03:58 | 28.95609 | 34.65101 | 38057 ft | 492 kts | 0° |
| 2026-04-21 03:58 | 29.02295 | 34.66878 | 38012 ft | 500 kts | 1° |
| 2026-04-21 03:59 | 29.05675 | 34.67998 | 38016 ft | 511 kts | 6° |
| 2026-04-21 03:59 | 29.09049 | 34.69351 | 38018 ft | 515 kts | 7° |
| 2026-04-21 04:00 | 29.19163 | 34.73613 | 38003 ft | 516 kts | 7° |
| 2026-04-21 04:00 | 29.25905 | 34.76407 | 38016 ft | 514 kts | 7° |
| 2026-04-21 04:01 | 29.32622 | 34.79162 | 38029 ft | 511 kts | 7° |
| 2026-04-21 04:01 | 29.39298 | 34.81904 | 38027 ft | 508 kts | 7° |
| 2026-04-21 04:02 | 29.45917 | 34.84630 | 38036 ft | 507 kts | 7° |
| 2026-04-21 04:02 | 29.52422 | 34.87876 | 38033 ft | 526 kts | 21° |
| 2026-04-21 04:02 | 29.55432 | 34.90427 | 38047 ft | 544 kts | 31° |
| 2026-04-21 04:03 | 29.58122 | 34.93537 | 38044 ft | 551 kts | 39° |
| 2026-04-21 04:03 | 29.60846 | 34.96523 | 38087 ft | 529 kts | 23° |
| 2026-04-21 04:03 | 29.64024 | 34.98366 | 38066 ft | 499 kts | 4° |
| 2026-04-21 04:03 | 29.67353 | 34.99120 | 38038 ft | 482 kts | 353° |
| 2026-04-21 04:04 | 29.70685 | 34.99468 | 38030 ft | 486 kts | 354° |
| 2026-04-21 04:04 | 29.77418 | 35.00804 | 38030 ft | 499 kts | 358° |
| 2026-04-21 04:05 | 29.84239 | 35.02207 | 38039 ft | 492 kts | 357° |
| 2026-04-21 04:05 | 29.90938 | 35.03415 | 38027 ft | 484 kts | 356° |
| 2026-04-21 04:06 | 29.97596 | 35.04727 | 38030 ft | 484 kts | 357° |
| 2026-04-21 04:06 | 30.04248 | 35.06072 | 38041 ft | 485 kts | 357° |
| 2026-04-21 04:07 | 30.10908 | 35.07408 | 38055 ft | 487 kts | 358° |
| 2026-04-21 04:07 | 30.16464 | 35.08544 | 38052 ft | 489 kts | 358° |
| 2026-04-21 04:08 | 30.24284 | 35.10135 | 37540 ft | 497 kts | 358° |
| 2026-04-21 04:08 | 30.27711 | 35.10796 | 36790 ft | 499 kts | 358° |
| 2026-04-21 04:08 | 30.29981 | 35.11235 | 36285 ft | 498 kts | 358° |
| 2026-04-21 04:08 | 30.33395 | 35.11896 | 35474 ft | 497 kts | 358° |
| 2026-04-21 04:09 | 30.36811 | 35.12551 | 34593 ft | 498 kts | 359° |
| 2026-04-21 04:09 | 30.40231 | 35.13202 | 33625 ft | 499 kts | 359° |
| 2026-04-21 04:09 | 30.43669 | 35.13856 | 32585 ft | 499 kts | 359° |
| 2026-04-21 04:09 | 30.47091 | 35.14510 | 31750 ft | 496 kts | 0° |
| 2026-04-21 04:10 | 30.50479 | 35.15164 | 31133 ft | 489 kts | 0° |
| 2026-04-21 04:10 | 30.53826 | 35.15852 | 30470 ft | 488 kts | 4° |
| 2026-04-21 04:10 | 30.57117 | 35.16843 | 29784 ft | 490 kts | 9° |
| 2026-04-21 04:10 | 30.60319 | 35.18222 | 29095 ft | 491 kts | 15° |
| 2026-04-21 04:11 | 30.63403 | 35.19766 | 28470 ft | 485 kts | 16° |
| 2026-04-21 04:11 | 30.66479 | 35.21323 | 27861 ft | 479 kts | 16° |
| 2026-04-21 04:11 | 30.69521 | 35.22852 | 27235 ft | 474 kts | 16° |
| 2026-04-21 04:11 | 30.72538 | 35.24352 | 26628 ft | 469 kts | 16° |
| 2026-04-21 04:12 | 30.75524 | 35.25823 | 26045 ft | 464 kts | 16° |
| 2026-04-21 04:12 | 30.78486 | 35.27275 | 25451 ft | 460 kts | 16° |
| 2026-04-21 04:12 | 30.81419 | 35.28712 | 24865 ft | 456 kts | 17° |
| 2026-04-21 04:12 | 30.84330 | 35.30141 | 24288 ft | 452 kts | 17° |
| 2026-04-21 04:13 | 30.87219 | 35.31562 | 23697 ft | 449 kts | 17° |
| 2026-04-21 04:13 | 30.90089 | 35.32975 | 23034 ft | 446 kts | 18° |
| 2026-04-21 04:13 | 30.92970 | 35.34240 | 22406 ft | 438 kts | 12° |
| 2026-04-21 04:13 | 30.95894 | 35.35120 | 21809 ft | 430 kts | 7° |
| 2026-04-21 04:14 | 30.98825 | 35.35655 | 21215 ft | 422 kts | 0° |
| 2026-04-21 04:14 | 31.01732 | 35.35924 | 20649 ft | 417 kts | 360° |
| 2026-04-21 04:14 | 31.04583 | 35.36194 | 20083 ft | 414 kts | 0° |
| 2026-04-21 04:14 | 31.07482 | 35.36490 | 19530 ft | 411 kts | 1° |
| 2026-04-21 04:15 | 31.10285 | 35.36775 | 18968 ft | 408 kts | 1° |
| 2026-04-21 04:15 | 31.13119 | 35.37060 | 18399 ft | 406 kts | 1° |
| 2026-04-21 04:15 | 31.15935 | 35.37343 | 17757 ft | 404 kts | 1° |
| 2026-04-21 04:15 | 31.18726 | 35.37632 | 17166 ft | 401 kts | 1° |
| 2026-04-21 04:16 | 31.21502 | 35.37932 | 16581 ft | 398 kts | 2° |
| 2026-04-21 04:16 | 31.24258 | 35.38233 | 16019 ft | 395 kts | 2° |
| 2026-04-21 04:16 | 31.26983 | 35.38529 | 15451 ft | 392 kts | 2° |
| 2026-04-21 04:16 | 31.29686 | 35.38821 | 14883 ft | 389 kts | 2° |
| 2026-04-21 04:17 | 31.32343 | 35.39108 | 14349 ft | 386 kts | 3° |
| 2026-04-21 04:17 | 31.35002 | 35.39547 | 13783 ft | 385 kts | 8° |
| 2026-04-21 04:17 | 31.37622 | 35.40129 | 13172 ft | 382 kts | 8° |
| 2026-04-21 04:17 | 31.40225 | 35.40718 | 12602 ft | 379 kts | 9° |
| 2026-04-21 04:18 | 31.42803 | 35.41300 | 12047 ft | 375 kts | 9° |
| 2026-04-21 04:18 | 31.45361 | 35.41872 | 11520 ft | 372 kts | 9° |
| 2026-04-21 04:18 | 31.47892 | 35.42434 | 10974 ft | 369 kts | 9° |
| 2026-04-21 04:18 | 31.50387 | 35.42987 | 10762 ft | 358 kts | 9° |
| 2026-04-21 04:19 | 31.52788 | 35.43519 | 10596 ft | 345 kts | 9° |
| 2026-04-21 04:19 | 31.55109 | 35.44032 | 10448 ft | 334 kts | 9° |
| 2026-04-21 04:19 | 31.57358 | 35.44529 | 10305 ft | 323 kts | 9° |
| 2026-04-21 04:19 | 31.59508 | 35.45005 | 10171 ft | 313 kts | 9° |
| 2026-04-21 04:20 | 31.61613 | 35.45470 | 10039 ft | 303 kts | 9° |
| 2026-04-21 04:20 | 31.63646 | 35.45938 | 9986 ft | 290 kts | 10° |
| 2026-04-21 04:20 | 31.65576 | 35.46407 | 10002 ft | 277 kts | 10° |
| 2026-04-21 04:20 | 31.67475 | 35.46867 | 10017 ft | 279 kts | 10° |
| 2026-04-21 04:21 | 31.69354 | 35.47322 | 10023 ft | 279 kts | 10° |
| 2026-04-21 04:21 | 31.71250 | 35.47781 | 10017 ft | 276 kts | 11° |
| 2026-04-21 04:21 | 31.73120 | 35.48078 | 10004 ft | 268 kts | 354° |
| 2026-04-21 04:21 | 31.74893 | 35.47422 | 10017 ft | 272 kts | 329° |
| 2026-04-21 04:22 | 31.76353 | 35.46004 | 9956 ft | 274 kts | 315° |
| 2026-04-21 04:22 | 31.77699 | 35.44415 | 9875 ft | 274 kts | 315° |
| 2026-04-21 04:22 | 31.79036 | 35.42828 | 9785 ft | 271 kts | 315° |
| 2026-04-21 04:22 | 31.80358 | 35.41259 | 9697 ft | 267 kts | 315° |
| 2026-04-21 04:23 | 31.81663 | 35.39713 | 9650 ft | 267 kts | 315° |
| 2026-04-21 04:23 | 31.82976 | 35.38161 | 9586 ft | 268 kts | 315° |
| 2026-04-21 04:23 | 31.84292 | 35.36609 | 9521 ft | 268 kts | 315° |
| 2026-04-21 04:23 | 31.85595 | 35.35073 | 9464 ft | 268 kts | 315° |
| 2026-04-21 04:24 | 31.86915 | 35.33518 | 9395 ft | 268 kts | 315° |
| 2026-04-21 04:24 | 31.88237 | 35.31961 | 9308 ft | 269 kts | 315° |
| 2026-04-21 04:24 | 31.89559 | 35.30406 | 9262 ft | 269 kts | 315° |
| 2026-04-21 04:24 | 31.90882 | 35.28848 | 9194 ft | 269 kts | 315° |
| 2026-04-21 04:25 | 31.92209 | 35.27286 | 9129 ft | 269 kts | 315° |
| 2026-04-21 04:25 | 31.93534 | 35.25725 | 9059 ft | 269 kts | 315° |
| 2026-04-21 04:25 | 31.94788 | 35.24104 | 8967 ft | 266 kts | 304° |
| 2026-04-21 04:25 | 31.95723 | 35.22236 | 8911 ft | 265 kts | 298° |
| 2026-04-21 04:26 | 31.96561 | 35.20303 | 8829 ft | 265 kts | 297° |
| 2026-04-21 04:26 | 31.97390 | 35.18367 | 8757 ft | 265 kts | 297° |
| 2026-04-21 04:26 | 31.98228 | 35.16437 | 8679 ft | 265 kts | 298° |
| 2026-04-21 04:26 | 31.99073 | 35.14514 | 8586 ft | 264 kts | 298° |
| 2026-04-21 04:27 | 31.99924 | 35.12595 | 8525 ft | 264 kts | 298° |
| 2026-04-21 04:27 | 32.00779 | 35.10681 | 8445 ft | 264 kts | 298° |
| 2026-04-21 04:27 | 32.01634 | 35.08771 | 8372 ft | 264 kts | 298° |
| 2026-04-21 04:27 | 32.02495 | 35.06856 | 8283 ft | 264 kts | 298° |
| 2026-04-21 04:28 | 32.03354 | 35.04944 | 8205 ft | 263 kts | 298° |
| 2026-04-21 04:28 | 32.04201 | 35.03059 | 8124 ft | 263 kts | 298° |
| 2026-04-21 04:28 | 32.05036 | 35.01152 | 8044 ft | 259 kts | 292° |
| 2026-04-21 04:28 | 32.05316 | 34.99065 | 7878 ft | 263 kts | 264° |
| 2026-04-21 04:29 | 32.04788 | 34.96983 | 7653 ft | 269 kts | 248° |
| 2026-04-21 04:29 | 32.04025 | 34.94948 | 7398 ft | 273 kts | 248° |
| 2026-04-21 04:29 | 32.03271 | 34.92898 | 7116 ft | 271 kts | 248° |
| 2026-04-21 04:29 | 32.02527 | 34.90862 | 6837 ft | 269 kts | 248° |
| 2026-04-21 04:30 | 32.01801 | 34.88873 | 6576 ft | 265 kts | 249° |
| 2026-04-21 04:30 | 32.01458 | 34.86814 | 6277 ft | 254 kts | 278° |
| 2026-04-21 04:30 | 32.01894 | 34.84849 | 6055 ft | 246 kts | 287° |
| 2026-04-21 04:30 | 32.02363 | 34.82899 | 5816 ft | 249 kts | 285° |
| 2026-04-21 04:31 | 32.02809 | 34.80928 | 5567 ft | 248 kts | 285° |
| 2026-04-21 04:31 | 32.03250 | 34.78978 | 5318 ft | 245 kts | 285° |
| 2026-04-21 04:31 | 32.03686 | 34.77053 | 5069 ft | 242 kts | 285° |
| 2026-04-21 04:31 | 32.04120 | 34.75153 | 4835 ft | 239 kts | 284° |
| 2026-04-21 04:32 | 32.04550 | 34.73273 | 4587 ft | 236 kts | 284° |
| 2026-04-21 04:32 | 32.04976 | 34.71414 | 4346 ft | 233 kts | 284° |
| 2026-04-21 04:32 | 32.05396 | 34.69574 | 4167 ft | 230 kts | 284° |
| 2026-04-21 04:32 | 32.05955 | 34.67849 | 3878 ft | 223 kts | 308° |
| 2026-04-21 04:33 | 32.07215 | 34.66940 | 3720 ft | 213 kts | 353° |
| 2026-04-21 04:33 | 32.08583 | 34.67293 | 3572 ft | 204 kts | 29° |
| 2026-04-21 04:33 | 32.09565 | 34.68456 | 3301 ft | 200 kts | 63° |
| 2026-04-21 04:33 | 32.09774 | 34.70005 | 3064 ft | 188 kts | 105° |
| 2026-04-21 04:34 | 32.09267 | 34.71360 | 2924 ft | 179 kts | 118° |
| 2026-04-21 04:34 | 32.08659 | 34.72677 | 2772 ft | 186 kts | 121° |
| 2026-04-21 04:34 | 32.07998 | 34.73987 | 2577 ft | 184 kts | 123° |
| 2026-04-21 04:34 | 32.07344 | 34.75253 | 2351 ft | 179 kts | 123° |
| 2026-04-21 04:35 | 32.06698 | 34.76497 | 2104 ft | 176 kts | 123° |
| 2026-04-21 04:35 | 32.06087 | 34.77679 | 1861 ft | 159 kts | 123° |
| 2026-04-21 04:35 | 32.05550 | 34.78716 | 1681 ft | 145 kts | 124° |
| 2026-04-21 04:35 | 32.05025 | 34.79730 | 1459 ft | 144 kts | 124° |
| 2026-04-21 04:36 | 32.04500 | 34.80741 | 1285 ft | 146 kts | 123° |
| 2026-04-21 04:36 | 32.03981 | 34.81779 | 1132 ft | 147 kts | 123° |
| 2026-04-21 04:36 | 32.03431 | 34.82814 | 919 ft | 154 kts | 124° |
| 2026-04-21 04:36 | 32.02857 | 34.83893 | 708 ft | 155 kts | 124° |
| 2026-04-21 04:37 | 32.02299 | 34.84959 | 483 ft | 148 kts | 121° |
| 2026-04-21 04:37 | 32.01799 | 34.85945 | 300 ft | 132 kts | 123° |
| 2026-04-21 04:37 | 32.01349 | 34.86817 | 141 ft | 122 kts | 123° |
| 2026-04-21 04:37 | 32.00935 | 34.87613 | 123 ft | 93 kts | 122° |
| 2026-04-21 04:38 | 32.00682 | 34.88102 | 121 ft | 63 kts | 121° |
| 2026-04-21 04:38 | 32.00500 | 34.88456 | 123 ft | 35 kts | 123° |
| 2026-04-21 04:38 | 32.00327 | 34.88634 | 122 ft | 30 kts | 150° |
| 2026-04-21 04:38 | 32.00206 | 34.88659 | 123 ft | 14 kts | 234° |
| 2026-04-21 04:39 | 32.00231 | 34.88549 | 120 ft | 15 kts | 298° |
| 2026-04-21 04:39 | 32.00285 | 34.88441 | 122 ft | 16 kts | 302° |
| 2026-04-21 04:39 | 32.00343 | 34.88330 | 121 ft | 16 kts | 302° |
| 2026-04-21 04:39 | 32.00402 | 34.88216 | 121 ft | 18 kts | 301° |
| 2026-04-21 04:40 | 32.00470 | 34.88086 | 123 ft | 20 kts | 301° |
| 2026-04-21 04:40 | 32.00513 | 34.87977 | 121 ft | 7 kts | 262° |
| 2026-04-21 04:40 | 32.00475 | 34.87936 | 120 ft | 8 kts | 210° |
| 2026-04-21 04:40 | 32.00418 | 34.87896 | 121 ft | 11 kts | 211° |
| 2026-04-21 04:41 | 32.00350 | 34.87845 | 121 ft | 12 kts | 221° |
| 2026-04-21 04:41 | 32.00365 | 34.87755 | 121 ft | 13 kts | 299° |
| 2026-04-21 04:41 | 32.00369 | 34.87703 | 122 ft | 6 kts | 269° |
| 2026-04-21 04:41 | 32.00370 | 34.87652 | 123 ft | 2 kts | 271° |
| 2026-04-21 04:42 | 32.00370 | 34.87636 | 125 ft | 0 kts | 271° |